Time,TemperatureF,DewpointF,PressureIn,WindDirection,WindDirectionDegrees,WindSpeedMPH,WindSpeedGustMPH,Humidity,HourlyPrecipIn,Conditions,Clouds,dailyrainin,SoftwareType,DateUTC
2013-10-22 00:01:00,64.9,29.3,29.74,NNW,333,5.8,5.8,26,0.00,,---,0.00,VWS V14.01,2013-10-22 05:01:00,
2013-10-22 00:06:00,64.8,29.1,29.74,North,0,3.6,5.8,26,0.00,,---,0.00,VWS V14.01,2013-10-22 05:06:00,
2013-10-22 00:11:00,64.6,29.9,29.74,NNW,331,4.9,5.4,27,0.00,,---,0.00,VWS V14.01,2013-10-22 05:11:00,
2013-10-22 00:16:00,64.2,30.5,29.74,NNE,32,3.1,3.6,28,0.00,,---,0.00,VWS V14.01,2013-10-22 05:16:00,
2013-10-22 00:21:00,64.0,30.3,29.74,NNW,331,6.3,6.3,28,0.00,,---,0.00,VWS V14.01,2013-10-22 05:21:00,
2013-10-22 00:26:00,63.9,31.0,29.74,NNW,342,3.6,5.8,29,0.00,,---,0.00,VWS V14.01,2013-10-22 05:26:00,
2013-10-22 00:31:00,63.5,31.5,29.74,NNW,329,7.2,7.2,30,0.00,,---,0.00,VWS V14.01,2013-10-22 05:31:00,
2013-10-22 00:36:00,63.1,32.8,29.74,North,353,5.8,5.8,32,0.00,,---,0.00,VWS V14.01,2013-10-22 05:36:00,
2013-10-22 00:41:00,63.0,33.4,29.74,NNW,344,8.3,8.3,33,0.00,,---,0.00,VWS V14.01,2013-10-22 05:41:00,
2013-10-22 00:47:00,63.0,33.4,29.74,NW,315,5.8,5.8,33,0.00,,---,0.00,VWS V14.01,2013-10-22 05:47:00,
2013-10-22 00:52:00,62.4,33.7,29.74,NNW,330,4.9,5.4,34,0.00,,---,0.00,VWS V14.01,2013-10-22 05:52:00,
2013-10-22 00:57:00,62.2,33.5,29.74,WNW,303,6.3,6.3,34,0.00,,---,0.00,VWS V14.01,2013-10-22 05:57:00,
2013-10-22 01:02:00,62.1,33.4,29.74,North,2,4.0,8.1,34,0.00,,---,0.00,VWS V14.01,2013-10-22 06:02:00,
2013-10-22 01:07:00,61.9,34.0,29.74,North,357,5.4,5.4,35,0.00,,---,0.00,VWS V14.01,2013-10-22 06:07:00,
2013-10-22 01:12:00,61.9,34.0,29.74,North,353,4.0,4.0,35,0.00,,---,0.00,VWS V14.01,2013-10-22 06:12:00,
2013-10-22 01:17:00,61.7,33.8,29.74,North,11,2.7,5.4,35,0.00,,---,0.00,VWS V14.01,2013-10-22 06:17:00,
2013-10-22 01:22:00,61.7,33.8,29.74,North,5,5.8,5.8,35,0.00,,---,0.00,VWS V14.01,2013-10-22 06:22:00,
2013-10-22 01:27:00,61.3,34.2,29.74,North,357,3.1,6.3,36,0.00,,---,0.00,VWS V14.01,2013-10-22 06:27:00,
2013-10-22 01:32:00,61.2,34.0,29.74,NW,315,5.8,5.8,36,0.00,,---,0.00,VWS V14.01,2013-10-22 06:32:00,
2013-10-22 01:37:00,61.2,34.0,29.74,NW,307,5.4,5.4,36,0.00,,---,0.00,VWS V14.01,2013-10-22 06:37:00,
2013-10-22 01:43:00,61.0,33.9,29.74,NW,325,7.6,7.6,36,0.00,,---,0.00,VWS V14.01,2013-10-22 06:43:00,
2013-10-22 01:48:00,61.0,33.9,29.77,NNW,330,4.0,4.0,36,0.00,,---,0.00,VWS V14.01,2013-10-22 06:48:00,
2013-10-22 01:53:00,60.6,34.2,29.77,North,357,4.0,4.0,37,0.00,,---,0.00,VWS V14.01,2013-10-22 06:53:00,
2013-10-22 01:58:00,60.6,34.2,29.77,North,0,5.4,5.4,37,0.00,,---,0.00,VWS V14.01,2013-10-22 06:58:00,
2013-10-22 02:03:00,60.6,34.2,29.74,North,0,4.0,4.0,37,0.00,,---,0.00,VWS V14.01,2013-10-22 07:03:00,
2013-10-22 02:08:00,60.4,34.1,29.74,NW,324,2.7,2.7,37,0.00,,---,0.00,VWS V14.01,2013-10-22 07:08:00,
2013-10-22 02:13:00,60.4,34.7,29.74,NW,313,5.4,5.4,38,0.00,,---,0.00,VWS V14.01,2013-10-22 07:13:00,
2013-10-22 02:18:00,60.4,34.7,29.77,NNW,330,8.3,8.3,38,0.00,,---,0.00,VWS V14.01,2013-10-22 07:18:00,
2013-10-22 02:23:00,60.4,34.7,29.77,North,353,4.0,4.0,38,0.00,,---,0.00,VWS V14.01,2013-10-22 07:23:00,
2013-10-22 02:28:00,60.4,34.7,29.77,NNW,332,4.0,4.9,38,0.00,,---,0.00,VWS V14.01,2013-10-22 07:28:00,
2013-10-22 02:33:00,60.4,34.7,29.77,NNW,330,5.4,5.4,38,0.00,,---,0.00,VWS V14.01,2013-10-22 07:33:00,
2013-10-22 02:38:00,60.4,34.1,29.77,NNE,21,4.0,4.9,37,0.00,,---,0.00,VWS V14.01,2013-10-22 07:38:00,
2013-10-22 02:43:00,60.4,34.1,29.77,North,357,6.3,6.3,37,0.00,,---,0.00,VWS V14.01,2013-10-22 07:43:00,
2013-10-22 02:48:00,60.4,34.1,29.77,WNW,303,4.0,6.3,37,0.00,,---,0.00,VWS V14.01,2013-10-22 07:48:00,
2013-10-22 02:53:00,60.3,33.9,29.77,WNW,295,4.9,4.9,37,0.00,,---,0.00,VWS V14.01,2013-10-22 07:53:00,
2013-10-22 02:58:00,60.3,33.9,29.77,NNW,345,4.0,4.0,37,0.00,,---,0.00,VWS V14.01,2013-10-22 07:58:00,
2013-10-22 03:03:00,60.3,33.9,29.77,NNE,18,5.8,5.8,37,0.00,,---,0.00,VWS V14.01,2013-10-22 08:03:00,
2013-10-22 03:08:00,60.3,33.9,29.77,NNW,342,5.4,5.4,37,0.00,,---,0.00,VWS V14.01,2013-10-22 08:08:00,
2013-10-22 03:13:00,60.3,33.9,29.77,North,353,5.4,5.4,37,0.00,,---,0.00,VWS V14.01,2013-10-22 08:13:00,
2013-10-22 03:18:00,60.3,33.9,29.77,North,0,5.4,5.4,37,0.00,,---,0.00,VWS V14.01,2013-10-22 08:18:00,
2013-10-22 03:23:00,60.3,33.9,29.77,NNE,16,4.0,4.0,37,0.00,,---,0.00,VWS V14.01,2013-10-22 08:23:00,
2013-10-22 03:28:00,60.3,33.9,29.77,North,353,4.9,5.4,37,0.00,,---,0.00,VWS V14.01,2013-10-22 08:28:00,
2013-10-22 03:33:00,60.3,33.9,29.77,NNW,330,4.0,5.4,37,0.00,,---,0.00,VWS V14.01,2013-10-22 08:33:00,
2013-10-22 03:39:00,60.3,33.9,29.77,North,6,4.0,4.0,37,0.00,,---,0.00,VWS V14.01,2013-10-22 08:39:00,
2013-10-22 03:44:00,60.1,33.8,29.77,NNW,329,5.4,5.4,37,0.00,,---,0.00,VWS V14.01,2013-10-22 08:44:00,
2013-10-22 03:49:00,59.9,34.2,29.77,North,1,3.6,5.8,38,0.00,,---,0.00,VWS V14.01,2013-10-22 08:49:00,
2013-10-22 03:54:00,59.7,34.1,29.77,WNW,296,4.9,4.9,38,0.00,,---,0.00,VWS V14.01,2013-10-22 08:54:00,
2013-10-22 03:59:00,59.7,34.1,29.77,North,350,4.0,4.0,38,0.00,,---,0.00,VWS V14.01,2013-10-22 08:59:00,
2013-10-22 04:04:00,59.7,34.1,29.77,North,353,3.1,3.1,38,0.00,,---,0.00,VWS V14.01,2013-10-22 09:04:00,
2013-10-22 04:09:00,59.4,33.8,29.77,NE,35,3.1,3.1,38,0.00,,---,0.00,VWS V14.01,2013-10-22 09:09:00,
2013-10-22 04:14:00,59.4,33.8,29.77,North,8,5.8,5.8,38,0.00,,---,0.00,VWS V14.01,2013-10-22 09:14:00,
2013-10-22 04:19:00,59.2,33.6,29.77,NNW,330,3.1,5.4,38,0.00,,---,0.00,VWS V14.01,2013-10-22 09:19:00,
2013-10-22 04:24:00,59.2,33.6,29.77,North,353,7.2,7.2,38,0.00,,---,0.00,VWS V14.01,2013-10-22 09:24:00,
2013-10-22 04:29:00,59.0,33.5,29.77,NW,307,5.4,5.4,38,0.00,,---,0.00,VWS V14.01,2013-10-22 09:29:00,
2013-10-22 04:34:00,59.0,34.1,29.77,North,357,6.3,6.3,39,0.00,,---,0.00,VWS V14.01,2013-10-22 09:34:00,
2013-10-22 04:39:00,59.2,33.6,29.77,NNW,341,4.9,4.9,38,0.00,,---,0.00,VWS V14.01,2013-10-22 09:39:00,
2013-10-22 04:44:00,59.2,33.0,29.77,NW,324,4.0,8.1,37,0.00,,---,0.00,VWS V14.01,2013-10-22 09:44:00,
2013-10-22 04:49:00,59.2,33.6,29.77,North,349,7.6,7.6,38,0.00,,---,0.00,VWS V14.01,2013-10-22 09:49:00,
2013-10-22 04:54:00,59.4,33.1,29.77,North,11,4.9,4.9,37,0.00,,---,0.00,VWS V14.01,2013-10-22 09:54:00,
2013-10-22 04:59:00,59.4,33.1,29.77,NNW,335,5.8,5.8,37,0.00,,---,0.00,VWS V14.01,2013-10-22 09:59:00,
2013-10-22 05:04:00,59.2,33.0,29.77,NE,34,8.3,8.3,37,0.00,,---,0.00,VWS V14.01,2013-10-22 10:04:00,
2013-10-22 05:09:00,59.2,33.0,29.77,NW,325,6.3,6.3,37,0.00,,---,0.00,VWS V14.01,2013-10-22 10:09:00,
2013-10-22 05:15:00,59.2,33.6,29.77,North,353,6.3,6.7,38,0.00,,---,0.00,VWS V14.01,2013-10-22 10:15:00,
2013-10-22 05:20:00,59.0,33.5,29.77,NNW,333,4.0,6.3,38,0.00,,---,0.00,VWS V14.01,2013-10-22 10:20:00,
2013-10-22 05:25:00,58.8,33.3,29.77,NNW,328,7.6,7.6,38,0.00,,---,0.00,VWS V14.01,2013-10-22 10:25:00,
2013-10-22 05:30:00,59.0,33.5,29.77,North,9,4.0,4.9,38,0.00,,---,0.00,VWS V14.01,2013-10-22 10:30:00,
2013-10-22 05:35:00,59.2,33.0,29.77,North,0,5.4,5.8,37,0.00,,---,0.00,VWS V14.01,2013-10-22 10:35:00,
2013-10-22 05:40:00,59.2,33.0,29.77,NNW,341,4.0,4.0,37,0.00,,---,0.00,VWS V14.01,2013-10-22 10:40:00,
2013-10-22 05:45:00,59.2,32.3,29.77,NNW,331,8.7,8.7,36,0.00,,---,0.00,VWS V14.01,2013-10-22 10:45:00,
2013-10-22 05:50:00,59.2,32.3,29.77,NNW,329,5.4,5.4,36,0.00,,---,0.00,VWS V14.01,2013-10-22 10:50:00,
2013-10-22 05:55:00,59.2,32.3,29.77,NNE,12,6.7,6.7,36,0.00,,---,0.00,VWS V14.01,2013-10-22 10:55:00,
2013-10-22 06:00:00,58.8,32.6,29.77,NNW,335,4.0,4.9,37,0.00,,---,0.00,VWS V14.01,2013-10-22 11:00:00,
2013-10-22 06:05:00,58.8,32.6,29.77,NW,326,5.4,8.1,37,0.00,,---,0.00,VWS V14.01,2013-10-22 11:05:00,
2013-10-22 06:10:00,58.6,31.8,29.77,North,5,5.8,8.1,36,0.00,,---,0.00,VWS V14.01,2013-10-22 11:10:00,
2013-10-22 06:15:00,58.6,32.5,29.77,NNW,338,5.4,5.4,37,0.00,,---,0.00,VWS V14.01,2013-10-22 11:15:00,
2013-10-22 06:20:00,58.5,31.6,29.77,North,0,5.4,5.4,36,0.00,,---,0.00,VWS V14.01,2013-10-22 11:20:00,
2013-10-22 06:25:00,58.1,32.0,29.77,NNW,344,7.6,7.6,37,0.00,,---,0.00,VWS V14.01,2013-10-22 11:25:00,
2013-10-22 06:30:00,58.1,32.0,29.80,North,349,5.4,5.4,37,0.00,,---,0.00,VWS V14.01,2013-10-22 11:30:00,
2013-10-22 06:35:00,57.7,31.7,29.80,North,0,6.3,6.3,37,0.00,,---,0.00,VWS V14.01,2013-10-22 11:35:00,
2013-10-22 06:40:00,57.6,31.5,29.80,NNW,336,6.3,6.3,37,0.00,,---,0.00,VWS V14.01,2013-10-22 11:40:00,
2013-10-22 06:45:00,57.6,31.5,29.80,NNW,336,6.3,6.3,37,0.00,,---,0.00,VWS V14.01,2013-10-22 11:45:00,
2013-10-22 06:50:00,57.2,31.2,29.80,NNW,342,5.4,5.4,37,0.00,,---,0.00,VWS V14.01,2013-10-22 11:50:00,
2013-10-22 06:55:00,57.2,31.2,29.80,North,4,6.3,6.3,37,0.00,,---,0.00,VWS V14.01,2013-10-22 11:55:00,
2013-10-22 07:00:00,56.8,31.5,29.80,North,357,5.4,5.4,38,0.00,,---,0.00,VWS V14.01,2013-10-22 12:00:00,
2013-10-22 07:05:00,56.8,30.9,29.80,NNW,342,4.0,4.0,37,0.00,,---,0.00,VWS V14.01,2013-10-22 12:05:00,
2013-10-22 07:10:00,56.5,30.5,29.80,NNW,341,3.6,5.4,37,0.00,,---,0.00,VWS V14.01,2013-10-22 12:10:00,
2013-10-22 07:15:00,56.3,30.4,29.80,North,0,7.2,7.2,37,0.00,,---,0.00,VWS V14.01,2013-10-22 12:15:00,
2013-10-22 07:20:00,56.3,29.7,29.80,WNW,300,5.4,5.4,36,0.00,,---,0.00,VWS V14.01,2013-10-22 12:20:00,
2013-10-22 07:25:00,56.3,29.7,29.80,NNW,344,8.1,8.1,36,0.00,,---,0.00,VWS V14.01,2013-10-22 12:25:00,
2013-10-22 07:30:00,56.3,29.7,29.80,North,6,3.6,5.4,36,0.00,,---,0.00,VWS V14.01,2013-10-22 12:30:00,
2013-10-22 07:35:00,55.9,29.4,29.80,NNE,15,5.8,5.8,36,0.00,,---,0.00,VWS V14.01,2013-10-22 12:35:00,
2013-10-22 07:40:00,55.8,29.2,29.80,North,9,8.1,8.1,36,0.00,,---,0.00,VWS V14.01,2013-10-22 12:40:00,
2013-10-22 07:45:00,55.8,28.5,29.80,NW,324,4.0,4.5,35,0.00,,---,0.00,VWS V14.01,2013-10-22 12:45:00,
2013-10-22 07:50:00,55.9,26.5,29.80,NW,324,4.0,4.0,32,0.00,,---,0.00,VWS V14.01,2013-10-22 12:50:00,
2013-10-22 07:55:00,55.9,25.8,29.80,North,357,5.4,6.3,31,0.00,,---,0.00,VWS V14.01,2013-10-22 12:55:00,
2013-10-22 08:00:00,55.8,24.0,29.80,NNW,343,7.6,8.3,29,0.00,,---,0.00,VWS V14.01,2013-10-22 13:00:00,
2013-10-22 08:05:00,55.8,23.2,29.83,North,0,4.0,5.4,28,0.00,,---,0.00,VWS V14.01,2013-10-22 13:05:00,
2013-10-22 08:10:00,55.8,24.0,29.83,NE,39,5.4,5.4,29,0.00,,---,0.00,VWS V14.01,2013-10-22 13:10:00,
2013-10-22 08:15:00,55.9,21.6,29.83,NNW,331,4.0,4.0,26,0.00,,---,0.00,VWS V14.01,2013-10-22 13:15:00,
2013-10-22 08:20:00,55.9,21.6,29.83,North,357,4.9,7.6,26,0.00,,---,0.00,VWS V14.01,2013-10-22 13:20:00,
2013-10-22 08:25:00,56.1,21.7,29.83,North,353,8.1,8.1,26,0.00,,---,0.00,VWS V14.01,2013-10-22 13:25:00,
2013-10-22 08:30:00,56.3,21.9,29.83,North,0,6.3,6.3,26,0.00,,---,0.00,VWS V14.01,2013-10-22 13:30:00,
2013-10-22 08:35:00,56.3,21.0,29.83,NNW,348,5.8,6.3,25,0.00,,---,0.00,VWS V14.01,2013-10-22 13:35:00,
2013-10-22 08:40:00,56.5,21.1,29.83,North,0,6.7,6.7,25,0.00,,---,0.00,VWS V14.01,2013-10-22 13:40:00,
2013-10-22 08:45:00,56.7,21.3,29.83,North,350,6.3,6.3,25,0.00,,---,0.00,VWS V14.01,2013-10-22 13:45:00,
2013-10-22 08:50:00,57.0,18.6,29.83,NNE,19,8.1,8.1,22,0.00,,---,0.00,VWS V14.01,2013-10-22 13:50:00,
2013-10-22 08:55:00,57.0,18.6,29.83,NNE,16,8.1,8.1,22,0.00,,---,0.00,VWS V14.01,2013-10-22 13:55:00,
2013-10-22 09:00:00,57.6,15.6,29.83,North,349,4.0,8.1,19,0.00,,---,0.00,VWS V14.01,2013-10-22 14:00:00,
2013-10-22 09:05:00,57.7,15.8,29.83,NNW,329,8.7,8.7,19,0.00,,---,0.00,VWS V14.01,2013-10-22 14:05:00,
2013-10-22 09:10:00,57.9,15.9,29.83,North,353,4.0,4.0,19,0.00,,---,0.00,VWS V14.01,2013-10-22 14:10:00,
2013-10-22 09:15:00,58.3,13.7,29.83,NW,323,5.4,8.1,17,0.00,,---,0.00,VWS V14.01,2013-10-22 14:15:00,
2013-10-22 09:20:00,58.5,13.8,29.83,NW,325,8.7,8.7,17,0.00,,---,0.00,VWS V14.01,2013-10-22 14:20:00,
2013-10-22 09:25:00,59.0,14.3,29.83,NNW,331,5.8,5.8,17,0.00,,---,0.00,VWS V14.01,2013-10-22 14:25:00,
2013-10-22 09:30:00,59.2,14.4,29.83,NNW,333,5.4,5.4,17,0.00,,---,0.00,VWS V14.01,2013-10-22 14:30:00,
2013-10-22 09:35:00,59.5,10.3,29.83,NNW,327,4.0,4.0,14,0.00,,---,0.00,VWS V14.01,2013-10-22 14:35:00,
2013-10-22 09:40:00,59.7,10.5,29.83,NNW,328,6.3,6.3,14,0.00,,---,0.00,VWS V14.01,2013-10-22 14:40:00,
2013-10-22 09:45:00,60.4,11.0,29.85,North,5,4.0,4.0,14,0.00,,---,0.00,VWS V14.01,2013-10-22 14:45:00,
2013-10-22 09:50:00,60.4,11.0,29.85,NW,323,5.4,5.8,14,0.00,,---,0.00,VWS V14.01,2013-10-22 14:50:00,
2013-10-22 09:55:00,61.0,11.5,29.85,NNW,330,7.6,7.6,14,0.00,,---,0.00,VWS V14.01,2013-10-22 14:55:00,
2013-10-22 10:00:00,61.3,11.8,29.85,North,0,5.4,5.4,14,0.00,,---,0.00,VWS V14.01,2013-10-22 15:00:00,
2013-10-22 10:05:00,61.7,12.1,29.85,NW,322,3.6,3.6,14,0.00,,---,0.00,VWS V14.01,2013-10-22 15:05:00,
2013-10-22 10:10:00,62.1,12.3,29.85,NW,324,4.0,5.8,14,0.00,,---,0.00,VWS V14.01,2013-10-22 15:10:00,
2013-10-22 10:15:00,62.4,12.6,29.85,North,353,4.0,6.3,14,0.00,,---,0.00,VWS V14.01,2013-10-22 15:15:00,
2013-10-22 10:20:00,62.6,11.1,29.85,North,350,6.3,6.3,13,0.00,,---,0.00,VWS V14.01,2013-10-22 15:20:00,
2013-10-22 10:25:00,63.0,11.4,29.85,North,353,8.3,8.3,13,0.00,,---,0.00,VWS V14.01,2013-10-22 15:25:00,
2013-10-22 10:30:00,63.5,11.8,29.85,NNW,329,10.1,10.1,13,0.00,,---,0.00,VWS V14.01,2013-10-22 15:30:00,
2013-10-22 10:35:00,63.9,12.1,29.85,NNW,334,6.3,6.3,13,0.00,,---,0.00,VWS V14.01,2013-10-22 15:35:00,
2013-10-22 10:40:00,64.2,12.4,29.85,NNE,14,5.4,5.4,13,0.00,,---,0.00,VWS V14.01,2013-10-22 15:40:00,
2013-10-22 10:45:00,64.6,12.7,29.85,NNW,341,5.8,6.3,13,0.00,,---,0.00,VWS V14.01,2013-10-22 15:45:00,
2013-10-22 10:50:00,65.1,13.1,29.85,NNW,344,5.4,8.7,13,0.00,,---,0.00,VWS V14.01,2013-10-22 15:50:00,
2013-10-22 10:55:00,65.7,13.5,29.85,NNW,336,3.1,3.1,13,0.00,,---,0.00,VWS V14.01,2013-10-22 15:55:00,
2013-10-22 11:00:00,65.7,13.5,29.85,NNW,341,5.4,5.8,13,0.00,,---,0.00,VWS V14.01,2013-10-22 16:00:00,
2013-10-22 11:05:00,65.8,13.6,29.85,North,3,5.4,7.6,13,0.00,,---,0.00,VWS V14.01,2013-10-22 16:05:00,
2013-10-22 11:10:00,66.4,12.3,29.85,NNW,337,5.4,8.7,12,0.00,,---,0.00,VWS V14.01,2013-10-22 16:10:00,
2013-10-22 11:15:00,66.6,12.4,29.85,NNW,338,5.8,5.8,12,0.00,,---,0.00,VWS V14.01,2013-10-22 16:15:00,
2013-10-22 11:20:00,67.1,12.8,29.85,North,357,6.3,6.3,12,0.00,,---,0.00,VWS V14.01,2013-10-22 16:20:00,
2013-10-22 11:25:00,67.8,13.4,29.85,WNW,298,6.3,6.3,12,0.00,,---,0.00,VWS V14.01,2013-10-22 16:25:00,
2013-10-22 11:30:00,68.0,13.5,29.85,NNW,334,6.3,6.3,12,0.00,,---,0.00,VWS V14.01,2013-10-22 16:30:00,
2013-10-22 11:35:00,68.7,14.1,29.85,North,357,5.4,5.4,12,0.00,,---,0.00,VWS V14.01,2013-10-22 16:35:00,
2013-10-22 11:40:00,69.8,14.9,29.85,NNW,335,3.1,5.4,12,0.00,,---,0.00,VWS V14.01,2013-10-22 16:40:00,
2013-10-22 11:45:00,72.7,15.2,29.85,NNW,335,3.1,3.1,11,0.00,,---,0.00,VWS V14.01,2013-10-22 16:45:00,
2013-10-22 11:50:00,72.1,14.8,29.85,NE,52,5.8,5.8,11,0.00,,---,0.00,VWS V14.01,2013-10-22 16:50:00,
2013-10-22 11:55:00,72.0,14.6,29.85,NE,50,3.6,5.4,11,0.00,,---,0.00,VWS V14.01,2013-10-22 16:55:00,
2013-10-22 12:00:00,72.0,14.6,29.85,NW,322,5.4,5.4,11,0.00,,---,0.00,VWS V14.01,2013-10-22 17:00:00,
2013-10-22 12:05:00,71.8,14.5,29.85,NNW,344,6.3,6.3,11,0.00,,---,0.00,VWS V14.01,2013-10-22 17:05:00,
2013-10-22 12:10:00,73.4,15.7,29.85,NE,47,6.7,6.7,11,0.00,,---,0.00,VWS V14.01,2013-10-22 17:10:00,
2013-10-22 12:15:00,73.0,15.5,29.83,NW,322,6.3,6.3,11,0.00,,---,0.00,VWS V14.01,2013-10-22 17:15:00,
2013-10-22 12:20:00,73.9,16.1,29.83,North,6,6.3,6.3,11,0.00,,---,0.00,VWS V14.01,2013-10-22 17:20:00,
2013-10-22 12:25:00,74.7,16.7,29.83,NE,38,3.6,3.6,11,0.00,,---,0.00,VWS V14.01,2013-10-22 17:25:00,
2013-10-22 12:30:00,73.9,16.1,29.83,North,0,6.7,6.7,11,0.00,,---,0.00,VWS V14.01,2013-10-22 17:30:00,
2013-10-22 12:35:00,74.3,16.4,29.83,NNE,24,8.1,8.1,11,0.00,,---,0.00,VWS V14.01,2013-10-22 17:35:00,
2013-10-22 12:40:00,74.5,16.6,29.83,NNW,339,5.8,5.8,11,0.00,,---,0.00,VWS V14.01,2013-10-22 17:40:00,
2013-10-22 12:45:00,75.2,14.9,29.83,North,357,8.3,8.3,10,0.00,,---,0.00,VWS V14.01,2013-10-22 17:45:00,
2013-10-22 12:50:00,75.0,17.0,29.83,NNE,19,8.7,8.7,11,0.00,,---,0.00,VWS V14.01,2013-10-22 17:50:00,
2013-10-22 12:55:00,75.2,14.9,29.83,NE,44,4.0,7.6,10,0.00,,---,0.00,VWS V14.01,2013-10-22 17:55:00,
2013-10-22 13:00:00,74.8,16.9,29.83,NNE,19,5.8,5.8,11,0.00,,---,0.00,VWS V14.01,2013-10-22 18:00:00,
2013-10-22 13:05:00,75.6,15.2,29.83,ENE,64,3.1,3.1,10,0.00,,---,0.00,VWS V14.01,2013-10-22 18:05:00,
2013-10-22 13:10:00,75.6,15.2,29.83,NNW,337,3.1,3.1,10,0.00,,---,0.00,VWS V14.01,2013-10-22 18:10:00,
2013-10-22 13:15:00,76.6,16.0,29.83,NNE,18,6.3,6.3,10,0.00,,---,0.00,VWS V14.01,2013-10-22 18:15:00,
2013-10-22 13:20:00,76.3,15.8,29.83,NNE,21,8.1,8.1,10,0.00,,---,0.00,VWS V14.01,2013-10-22 18:20:00,
2013-10-22 13:25:00,75.4,15.1,29.83,North,3,5.4,5.4,10,0.00,,---,0.00,VWS V14.01,2013-10-22 18:25:00,
2013-10-22 13:30:00,75.6,15.2,29.83,NNE,15,4.9,5.4,10,0.00,,---,0.00,VWS V14.01,2013-10-22 18:30:00,
2013-10-22 13:36:00,75.4,15.1,29.83,North,353,8.1,8.1,10,0.00,,---,0.00,VWS V14.01,2013-10-22 18:36:00,
2013-10-22 13:41:00,76.6,16.0,29.83,NNW,345,10.1,10.1,10,0.00,,---,0.00,VWS V14.01,2013-10-22 18:41:00,
2013-10-22 13:46:00,76.6,16.0,29.83,NNW,330,5.8,5.8,10,0.00,,---,0.00,VWS V14.01,2013-10-22 18:46:00,
2013-10-22 13:51:00,75.0,17.0,29.83,NW,318,7.6,7.6,11,0.00,,---,0.00,VWS V14.01,2013-10-22 18:51:00,
2013-10-22 13:56:00,75.2,14.9,29.83,North,0,7.6,7.6,10,0.00,,---,0.00,VWS V14.01,2013-10-22 18:56:00,
2013-10-22 14:01:00,74.1,16.3,29.80,WNW,291,4.9,4.9,11,0.00,,---,0.00,VWS V14.01,2013-10-22 19:01:00,
2013-10-22 14:06:00,74.3,16.4,29.80,North,3,2.7,2.7,11,0.00,,---,0.00,VWS V14.01,2013-10-22 19:06:00,
2013-10-22 14:11:00,74.5,16.6,29.80,NNW,330,8.3,8.3,11,0.00,,---,0.00,VWS V14.01,2013-10-22 19:11:00,
2013-10-22 14:16:00,75.7,15.4,29.80,NNE,14,5.4,5.4,10,0.00,,---,0.00,VWS V14.01,2013-10-22 19:16:00,
2013-10-22 14:21:00,76.3,15.8,29.80,North,1,4.9,8.1,10,0.00,,---,0.00,VWS V14.01,2013-10-22 19:21:00,
2013-10-22 14:26:00,77.5,16.7,29.80,NE,52,3.6,4.0,10,0.00,,---,0.00,VWS V14.01,2013-10-22 19:26:00,
2013-10-22 14:31:00,78.6,17.5,29.80,NE,50,2.7,6.3,10,0.00,,---,0.00,VWS V14.01,2013-10-22 19:31:00,
2013-10-22 14:36:00,78.6,17.5,29.80,NNW,333,6.3,6.3,10,0.00,,---,0.00,VWS V14.01,2013-10-22 19:36:00,
2013-10-22 14:41:00,78.8,17.7,29.80,NNE,25,4.9,4.9,10,0.00,,---,0.00,VWS V14.01,2013-10-22 19:41:00,
2013-10-22 14:46:00,78.6,17.5,29.80,NE,39,4.0,4.0,10,0.00,,---,0.00,VWS V14.01,2013-10-22 19:46:00,
2013-10-22 14:51:00,79.7,18.4,29.77,NNW,337,4.0,4.0,10,0.00,,---,0.00,VWS V14.01,2013-10-22 19:51:00,
2013-10-22 14:56:00,77.5,16.7,29.77,NW,322,3.1,3.1,10,0.00,,---,0.00,VWS V14.01,2013-10-22 19:56:00,
2013-10-22 15:01:00,78.4,17.4,29.77,NE,38,4.9,4.9,10,0.00,,---,0.00,VWS V14.01,2013-10-22 20:01:00,
2013-10-22 15:06:00,76.5,15.9,29.77,NE,35,4.0,4.0,10,0.00,,---,0.00,VWS V14.01,2013-10-22 20:06:00,
2013-10-22 15:11:00,77.5,16.7,29.77,NE,47,6.3,6.3,10,0.00,,---,0.00,VWS V14.01,2013-10-22 20:11:00,
2013-10-22 15:16:00,78.6,17.5,29.77,NE,38,3.6,3.6,10,0.00,,---,0.00,VWS V14.01,2013-10-22 20:16:00,
2013-10-22 15:21:00,77.4,16.6,29.77,NNE,21,6.3,9.6,10,0.00,,---,0.00,VWS V14.01,2013-10-22 20:21:00,
2013-10-22 15:26:00,77.7,16.9,29.77,NE,54,3.6,3.6,10,0.00,,---,0.00,VWS V14.01,2013-10-22 20:26:00,
2013-10-22 15:31:00,77.7,16.9,29.77,NNE,32,3.6,3.6,10,0.00,,---,0.00,VWS V14.01,2013-10-22 20:31:00,
2013-10-22 15:36:00,77.4,16.6,29.77,NNE,12,5.8,5.8,10,0.00,,---,0.00,VWS V14.01,2013-10-22 20:36:00,
2013-10-22 15:41:00,76.3,15.8,29.77,NNE,18,3.6,4.0,10,0.00,,---,0.00,VWS V14.01,2013-10-22 20:41:00,
2013-10-22 15:46:00,75.2,14.9,29.77,NNE,21,5.4,5.4,10,0.00,,---,0.00,VWS V14.01,2013-10-22 20:46:00,
2013-10-22 15:51:00,75.0,17.0,29.77,ENE,62,2.7,2.7,11,0.00,,---,0.00,VWS V14.01,2013-10-22 20:51:00,
2013-10-22 15:56:00,74.7,16.7,29.77,North,4,2.7,2.7,11,0.00,,---,0.00,VWS V14.01,2013-10-22 20:56:00,
2013-10-22 16:01:00,74.8,16.9,29.77,NE,42,7.2,7.2,11,0.00,,---,0.00,VWS V14.01,2013-10-22 21:01:00,
2013-10-22 16:06:00,74.7,16.7,29.77,North,2,4.0,4.0,11,0.00,,---,0.00,VWS V14.01,2013-10-22 21:06:00,
2013-10-22 16:11:00,74.8,16.9,29.77,NNE,20,2.7,2.7,11,0.00,,---,0.00,VWS V14.01,2013-10-22 21:11:00,
2013-10-22 16:16:00,74.7,16.7,29.77,NNE,23,0.0,3.1,11,0.00,,---,0.00,VWS V14.01,2013-10-22 21:16:00,
2013-10-22 16:21:00,75.0,17.0,29.77,NW,312,3.6,3.6,11,0.00,,---,0.00,VWS V14.01,2013-10-22 21:21:00,
2013-10-22 16:26:00,75.0,17.0,29.77,NW,312,3.6,3.6,11,0.00,,---,0.00,VWS V14.01,2013-10-22 21:26:00,
2013-10-22 16:31:00,75.0,17.0,29.77,NNE,25,3.6,3.6,11,0.00,,---,0.00,VWS V14.01,2013-10-22 21:31:00,
2013-10-22 16:36:00,74.8,16.9,29.77,North,353,3.1,3.1,11,0.00,,---,0.00,VWS V14.01,2013-10-22 21:36:00,
2013-10-22 16:41:00,75.2,14.9,29.77,NE,36,4.0,4.0,10,0.00,,---,0.00,VWS V14.01,2013-10-22 21:41:00,
2013-10-22 16:46:00,74.8,16.9,29.77,North,357,4.0,4.0,11,0.00,,---,0.00,VWS V14.01,2013-10-22 21:46:00,
2013-10-22 16:51:00,75.6,15.2,29.77,North,353,4.9,4.9,10,0.00,,---,0.00,VWS V14.01,2013-10-22 21:51:00,
2013-10-22 16:56:00,75.2,14.9,29.77,North,3,4.0,4.0,10,0.00,,---,0.00,VWS V14.01,2013-10-22 21:56:00,
2013-10-22 17:01:00,74.5,16.6,29.77,North,3,4.0,4.0,11,0.00,,---,0.00,VWS V14.01,2013-10-22 22:01:00,
2013-10-22 17:06:00,73.9,16.1,29.77,NE,40,0.0,0.0,11,0.00,,---,0.00,VWS V14.01,2013-10-22 22:06:00,
2013-10-22 17:11:00,73.6,15.9,29.77,NE,50,0.0,0.0,11,0.00,,---,0.00,VWS V14.01,2013-10-22 22:11:00,
2013-10-22 17:17:00,73.4,15.7,29.77,NE,51,2.7,2.7,11,0.00,,---,0.00,VWS V14.01,2013-10-22 22:17:00,
2013-10-22 17:22:00,73.4,15.7,29.77,NNE,31,0.0,2.7,11,0.00,,---,0.00,VWS V14.01,2013-10-22 22:22:00,
2013-10-22 17:27:00,73.2,15.6,29.77,NNE,29,4.0,4.0,11,0.00,,---,0.00,VWS V14.01,2013-10-22 22:27:00,
2013-10-22 17:32:00,73.4,15.7,29.77,North,11,3.6,3.6,11,0.00,,---,0.00,VWS V14.01,2013-10-22 22:32:00,
2013-10-22 17:37:00,73.0,15.5,29.77,NNE,28,4.0,4.0,11,0.00,,---,0.00,VWS V14.01,2013-10-22 22:37:00,
2013-10-22 17:42:00,72.9,15.3,29.77,NNE,17,2.2,2.2,11,0.00,,---,0.00,VWS V14.01,2013-10-22 22:42:00,
2013-10-22 17:47:00,72.3,14.9,29.77,NNE,17,0.0,0.0,11,0.00,,---,0.00,VWS V14.01,2013-10-22 22:47:00,
2013-10-22 17:52:00,72.1,14.8,29.77,NE,34,2.7,2.7,11,0.00,,---,0.00,VWS V14.01,2013-10-22 22:52:00,
2013-10-22 17:57:00,72.1,14.8,29.77,NE,50,2.7,2.7,11,0.00,,---,0.00,VWS V14.01,2013-10-22 22:57:00,
2013-10-22 18:02:00,72.1,14.8,29.77,NE,43,2.7,2.7,11,0.00,,---,0.00,VWS V14.01,2013-10-22 23:02:00,
2013-10-22 18:07:00,72.0,14.6,29.77,NE,35,2.2,2.7,11,0.00,,---,0.00,VWS V14.01,2013-10-22 23:07:00,
2013-10-22 18:13:00,71.4,16.2,29.77,NNE,16,0.0,0.0,12,0.00,,---,0.00,VWS V14.01,2013-10-22 23:13:00,
2013-10-22 18:18:00,71.2,16.1,29.77,NNE,26,3.1,3.1,12,0.00,,---,0.00,VWS V14.01,2013-10-22 23:18:00,
2013-10-22 18:23:00,71.1,15.9,29.77,NE,41,2.7,2.7,12,0.00,,---,0.00,VWS V14.01,2013-10-22 23:23:00,
2013-10-22 18:28:00,70.7,15.6,29.77,NNE,27,0.0,0.0,12,0.00,,---,0.00,VWS V14.01,2013-10-22 23:28:00,
2013-10-22 18:33:00,69.8,14.9,29.77,NNE,27,0.0,0.0,12,0.00,,---,0.00,VWS V14.01,2013-10-22 23:33:00,
2013-10-22 18:38:00,69.3,14.5,29.77,NNE,27,0.0,0.0,12,0.00,,---,0.00,VWS V14.01,2013-10-22 23:38:00,
2013-10-22 18:43:00,68.9,14.2,29.77,NNE,27,0.0,0.0,12,0.00,,---,0.00,VWS V14.01,2013-10-22 23:43:00,
2013-10-22 18:48:00,68.0,13.5,29.77,NNE,27,0.0,0.0,12,0.00,,---,0.00,VWS V14.01,2013-10-22 23:48:00,
2013-10-22 18:53:00,66.6,12.4,29.77,NNE,27,0.0,0.0,12,0.00,,---,0.00,VWS V14.01,2013-10-22 23:53:00,
2013-10-22 18:58:00,65.7,13.5,29.77,NNE,27,0.0,0.0,13,0.00,,---,0.00,VWS V14.01,2013-10-22 23:58:00,
2013-10-22 19:03:00,64.8,12.8,29.77,NNE,27,0.0,0.0,13,0.00,,---,0.00,VWS V14.01,2013-10-23 00:03:00,
2013-10-22 19:08:00,64.2,12.4,29.77,NNE,27,0.0,0.0,13,0.00,,---,0.00,VWS V14.01,2013-10-23 00:08:00,
2013-10-22 19:13:00,63.9,12.1,29.77,NNE,27,0.0,0.0,13,0.00,,---,0.00,VWS V14.01,2013-10-23 00:13:00,
2013-10-22 19:18:00,63.5,11.8,29.77,NNE,27,0.0,0.0,13,0.00,,---,0.00,VWS V14.01,2013-10-23 00:18:00,
2013-10-22 19:23:00,63.5,11.8,29.77,NNE,27,0.0,0.0,13,0.00,,---,0.00,VWS V14.01,2013-10-23 00:23:00,
2013-10-22 19:28:00,63.3,11.7,29.77,NNE,27,0.0,0.0,13,0.00,,---,0.00,VWS V14.01,2013-10-23 00:28:00,
2013-10-22 19:33:00,63.0,11.4,29.77,NNE,27,0.0,0.0,13,0.00,,---,0.00,VWS V14.01,2013-10-23 00:33:00,
2013-10-22 19:38:00,62.2,12.5,29.77,NNE,27,0.0,0.0,14,0.00,,---,0.00,VWS V14.01,2013-10-23 00:38:00,
2013-10-22 19:43:00,61.5,11.9,29.77,NNE,27,0.0,0.0,14,0.00,,---,0.00,VWS V14.01,2013-10-23 00:43:00,
2013-10-22 19:48:00,61.2,11.6,29.77,NNE,27,0.0,0.0,14,0.00,,---,0.00,VWS V14.01,2013-10-23 00:48:00,
2013-10-22 19:53:00,60.4,11.0,29.77,NNE,27,0.0,0.0,14,0.00,,---,0.00,VWS V14.01,2013-10-23 00:53:00,
2013-10-22 19:58:00,60.3,10.9,29.77,NNE,27,0.0,0.0,14,0.00,,---,0.00,VWS V14.01,2013-10-23 00:58:00,
2013-10-22 20:03:00,60.3,15.3,29.80,NNE,27,0.0,0.0,17,0.00,,---,0.00,VWS V14.01,2013-10-23 01:03:00,
2013-10-22 20:08:00,60.6,11.2,29.80,NNE,27,0.0,0.0,14,0.00,,---,0.00,VWS V14.01,2013-10-23 01:08:00,
2013-10-22 20:13:00,61.2,11.6,29.80,NNW,338,2.2,2.2,14,0.00,,---,0.00,VWS V14.01,2013-10-23 01:13:00,
2013-10-22 20:18:00,61.2,11.6,29.80,NNW,338,2.2,2.2,14,0.00,,---,0.00,VWS V14.01,2013-10-23 01:18:00,
2013-10-22 20:23:00,61.0,11.5,29.80,NNW,338,2.2,2.2,14,0.00,,---,0.00,VWS V14.01,2013-10-23 01:23:00,
2013-10-22 20:28:00,60.6,11.2,29.80,NNW,338,0.0,0.0,14,0.00,,---,0.00,VWS V14.01,2013-10-23 01:28:00,
2013-10-22 20:33:00,60.4,15.4,29.80,NNW,338,0.0,0.0,17,0.00,,---,0.00,VWS V14.01,2013-10-23 01:33:00,
2013-10-22 20:38:00,59.7,14.9,29.80,NNW,338,0.0,0.0,17,0.00,,---,0.00,VWS V14.01,2013-10-23 01:38:00,
2013-10-22 20:43:00,59.0,16.8,29.80,NNW,338,0.0,0.0,19,0.00,,---,0.00,VWS V14.01,2013-10-23 01:43:00,
2013-10-22 20:48:00,58.6,19.9,29.80,NNW,338,0.0,0.0,22,0.00,,---,0.00,VWS V14.01,2013-10-23 01:48:00,
2013-10-22 20:53:00,57.9,22.3,29.80,NNW,338,0.0,0.0,25,0.00,,---,0.00,VWS V14.01,2013-10-23 01:53:00,
2013-10-22 20:58:00,57.9,22.3,29.80,NNW,338,0.0,0.0,25,0.00,,---,0.00,VWS V14.01,2013-10-23 01:58:00,
2013-10-22 21:03:00,57.7,22.2,29.80,NNW,338,0.0,0.0,25,0.00,,---,0.00,VWS V14.01,2013-10-23 02:03:00,
2013-10-22 21:08:00,57.7,22.2,29.80,NNW,338,0.0,0.0,25,0.00,,---,0.00,VWS V14.01,2013-10-23 02:08:00,
2013-10-22 21:13:00,57.9,21.4,29.80,NNW,338,2.2,2.2,24,0.00,,---,0.00,VWS V14.01,2013-10-23 02:13:00,
2013-10-22 21:18:00,57.9,21.4,29.80,NNW,338,0.0,0.0,24,0.00,,---,0.00,VWS V14.01,2013-10-23 02:18:00,
2013-10-22 21:23:00,57.2,21.7,29.80,NNW,338,0.0,0.0,25,0.00,,---,0.00,VWS V14.01,2013-10-23 02:23:00,
2013-10-22 21:28:00,56.5,22.0,29.80,NNW,338,0.0,0.0,26,0.00,,---,0.00,VWS V14.01,2013-10-23 02:28:00,
2013-10-22 21:33:00,55.9,22.5,29.80,NNW,338,0.0,0.0,27,0.00,,---,0.00,VWS V14.01,2013-10-23 02:33:00,
2013-10-22 21:38:00,56.1,24.3,29.80,NNW,338,2.2,2.2,29,0.00,,---,0.00,VWS V14.01,2013-10-23 02:38:00,
2013-10-22 21:43:00,56.3,24.5,29.80,NNW,338,2.2,2.7,29,0.00,,---,0.00,VWS V14.01,2013-10-23 02:43:00,
2013-10-22 21:48:00,56.3,23.6,29.80,NNW,338,2.2,2.2,28,0.00,,---,0.00,VWS V14.01,2013-10-23 02:48:00,
2013-10-22 21:53:00,56.3,24.5,29.80,NNW,338,3.1,3.1,29,0.00,,---,0.00,VWS V14.01,2013-10-23 02:53:00,
2013-10-22 21:58:00,56.1,23.5,29.80,NNW,333,2.7,2.7,28,0.00,,---,0.00,VWS V14.01,2013-10-23 02:58:00,
2013-10-22 22:03:00,56.1,22.6,29.80,NW,326,3.6,3.6,27,0.00,,---,0.00,VWS V14.01,2013-10-23 03:03:00,
2013-10-22 22:08:00,55.9,22.5,29.80,NW,325,2.7,2.7,27,0.00,,---,0.00,VWS V14.01,2013-10-23 03:08:00,
2013-10-22 22:13:00,55.9,22.5,29.80,NW,325,2.7,2.7,27,0.00,,---,0.00,VWS V14.01,2013-10-23 03:13:00,
2013-10-22 22:18:00,55.6,22.1,29.80,NW,324,2.2,2.2,27,0.00,,---,0.00,VWS V14.01,2013-10-23 03:18:00,
2013-10-22 22:23:00,55.4,22.0,29.80,NW,325,2.7,2.7,27,0.00,,---,0.00,VWS V14.01,2013-10-23 03:23:00,
2013-10-22 22:28:00,55.2,21.8,29.80,NW,325,2.7,2.7,27,0.00,,---,0.00,VWS V14.01,2013-10-23 03:28:00,
2013-10-22 22:33:00,55.0,21.7,29.80,NW,325,3.1,3.1,27,0.00,,---,0.00,VWS V14.01,2013-10-23 03:33:00,
2013-10-22 22:38:00,55.4,22.0,29.80,NW,325,2.2,2.2,27,0.00,,---,0.00,VWS V14.01,2013-10-23 03:38:00,
2013-10-22 22:43:00,55.0,23.4,29.80,NW,325,2.7,2.7,29,0.00,,---,0.00,VWS V14.01,2013-10-23 03:43:00,
2013-10-22 22:48:00,54.7,23.9,29.80,NW,325,2.7,2.7,30,0.00,,---,0.00,VWS V14.01,2013-10-23 03:48:00,
2013-10-22 22:53:00,54.5,25.3,29.80,NW,324,2.7,2.7,32,0.00,,---,0.00,VWS V14.01,2013-10-23 03:53:00,
2013-10-22 22:58:00,54.1,25.7,29.80,NW,324,2.7,2.7,33,0.00,,---,0.00,VWS V14.01,2013-10-23 03:58:00,
2013-10-22 23:01:00,54.0,24.0,29.80,NW,324,2.7,2.7,31,0.00,,---,0.00,VWS V14.01,2013-10-23 04:01:00,
2013-10-22 23:02:00,54.0,24.0,29.80,NW,324,2.2,2.7,31,0.00,,---,0.00,VWS V14.01,2013-10-23 04:02:00,
2013-10-22 23:03:00,54.0,24.8,29.80,NW,325,2.7,2.7,32,0.00,,---,0.00,VWS V14.01,2013-10-23 04:03:00,
2013-10-22 23:04:00,54.0,26.2,29.80,NW,325,2.7,2.7,34,0.00,,---,0.00,VWS V14.01,2013-10-23 04:04:00,
2013-10-22 23:09:00,54.0,25.5,29.80,NW,324,2.7,2.7,33,0.00,,---,0.00,VWS V14.01,2013-10-23 04:09:00,
2013-10-22 23:14:00,53.8,26.8,29.80,NW,325,2.7,2.7,35,0.00,,---,0.00,VWS V14.01,2013-10-23 04:14:00,
2013-10-22 23:19:00,53.4,27.1,29.83,NW,325,2.7,2.7,36,0.00,,---,0.00,VWS V14.01,2013-10-23 04:19:00,
2013-10-22 23:24:00,53.2,27.0,29.83,NW,324,2.2,2.7,36,0.00,,---,0.00,VWS V14.01,2013-10-23 04:24:00,
2013-10-22 23:29:00,53.1,26.8,29.83,NW,324,2.7,2.7,36,0.00,,---,0.00,VWS V14.01,2013-10-23 04:29:00,
2013-10-22 23:34:00,52.9,27.3,29.83,NW,324,2.2,2.2,37,0.00,,---,0.00,VWS V14.01,2013-10-23 04:34:00,
2013-10-22 23:39:00,52.7,26.5,29.83,NW,324,3.1,3.1,36,0.00,,---,0.00,VWS V14.01,2013-10-23 04:39:00,
2013-10-22 23:44:00,52.9,27.3,29.83,NW,324,2.7,2.7,37,0.00,,---,0.00,VWS V14.01,2013-10-23 04:44:00,
2013-10-22 23:49:00,52.9,27.3,29.83,NW,324,2.2,2.2,37,0.00,,---,0.00,VWS V14.01,2013-10-23 04:49:00,
2013-10-22 23:54:00,52.7,27.2,29.83,NW,324,2.2,2.2,37,0.00,,---,0.00,VWS V14.01,2013-10-23 04:54:00,
2013-10-22 23:59:00,52.5,27.0,29.83,NW,325,2.7,2.7,37,0.00,,---,0.00,VWS V14.01,2013-10-23 04:59:00,